createdAt,value
2023-02-23T00:02:52.288Z,0.84
2023-02-23T00:07:56.116Z,0.82
2023-02-23T00:12:59.592Z,0.82
2023-02-23T00:18:04.672Z,0.80
2023-02-23T00:23:07.571Z,0.80
2023-02-23T00:28:10.454Z,0.82
2023-02-23T00:33:13.495Z,0.84
2023-02-23T00:38:16.373Z,0.85
2023-02-23T00:43:20.145Z,0.86
2023-02-23T00:48:22.987Z,0.91
2023-02-23T00:53:27.390Z,0.98
2023-02-23T00:58:31.510Z,1.04
2023-02-23T01:03:34.552Z,1.05
2023-02-23T01:08:44.227Z,1.06
2023-02-23T01:13:48.688Z,1.07
2023-02-23T01:18:51.725Z,1.10
2023-02-23T01:23:55.438Z,1.13
2023-02-23T01:29:02.278Z,1.15
2023-02-23T01:34:06.566Z,1.11
2023-02-23T01:39:17.571Z,1.08
2023-02-23T01:44:20.406Z,1.10
2023-02-23T01:49:29.728Z,1.15
2023-02-23T01:54:42.526Z,1.17
2023-02-23T01:59:49.133Z,1.18
2023-02-23T02:04:52.458Z,2.63
2023-02-23T02:10:13.822Z,6.64
2023-02-23T02:15:19.771Z,6.93
2023-02-23T02:21:21.031Z,5.20
2023-02-23T02:27:21.769Z,4.13
2023-02-23T02:32:55.441Z,3.47
2023-02-23T02:38:36.194Z,2.94
2023-02-23T02:44:17.901Z,2.50
2023-02-23T02:49:27.820Z,2.17
2023-02-23T02:54:44.131Z,1.94
2023-02-23T03:00:08.551Z,1.75
2023-02-23T03:05:35.497Z,1.62
2023-02-23T03:11:17.677Z,1.51
2023-02-23T03:16:48.391Z,1.40
2023-02-23T03:22:26.134Z,1.23
2023-02-23T03:27:53.679Z,1.09
2023-02-23T03:33:22.851Z,2.34
2023-02-23T03:39:16.905Z,6.77
2023-02-23T03:44:48.195Z,7.02
2023-02-23T03:50:10.078Z,4.88
2023-02-23T03:55:40.100Z,3.76
2023-02-23T04:01:08.631Z,3.07
2023-02-23T04:06:34.392Z,2.56
2023-02-23T04:12:23.075Z,2.18
2023-02-23T04:17:29.031Z,1.86
2023-02-23T04:22:31.943Z,1.58
2023-02-23T04:27:36.513Z,1.39
2023-02-23T04:32:39.566Z,1.25
2023-02-23T04:37:42.583Z,1.16
2023-02-23T04:42:45.493Z,1.07
2023-02-23T04:47:48.496Z,0.99
2023-02-23T04:52:53.331Z,2.14
2023-02-23T04:58:02.034Z,6.24
2023-02-23T05:03:05.101Z,7.12
2023-02-23T05:08:07.994Z,5.07
2023-02-23T05:13:11.075Z,3.86
2023-02-23T05:18:14.004Z,3.16
2023-02-23T05:23:16.905Z,2.65
2023-02-23T05:28:19.789Z,2.27
2023-02-23T05:33:22.654Z,1.93
2023-02-23T05:38:27.287Z,1.67
2023-02-23T05:43:30.164Z,1.50
2023-02-23T05:48:34.075Z,1.39
2023-02-23T05:53:37.102Z,1.29
2023-02-23T05:58:39.941Z,1.21
2023-02-23T06:03:43.015Z,1.15
2023-02-23T06:08:46.244Z,1.11
2023-02-23T06:13:49.758Z,2.44
2023-02-23T06:18:52.640Z,6.41
2023-02-23T06:23:55.580Z,7.97
2023-02-23T06:28:58.507Z,6.27
2023-02-23T06:34:01.388Z,4.85
2023-02-23T06:39:04.934Z,4.04
2023-02-23T06:44:07.817Z,3.48
2023-02-23T06:49:12.320Z,3.06
2023-02-23T06:54:16.241Z,2.74
2023-02-23T06:59:19.135Z,2.51
2023-02-23T07:04:22.061Z,3.99
2023-02-23T07:09:25.253Z,7.69
2023-02-23T07:14:28.349Z,7.72
2023-02-23T07:19:32.516Z,5.83
2023-02-23T07:24:35.440Z,4.79
2023-02-23T07:29:38.370Z,4.17
2023-02-23T07:34:41.286Z,3.70
2023-02-23T07:39:44.334Z,3.33
2023-02-23T07:44:47.327Z,3.06
2023-02-23T07:49:50.251Z,2.89
2023-02-23T07:54:53.273Z,4.96
2023-02-23T07:59:56.241Z,8.13
2023-02-23T08:05:00.154Z,8.60
2023-02-23T08:10:03.855Z,6.66
2023-02-23T08:15:08.387Z,5.40
2023-02-23T08:20:11.687Z,4.59
2023-02-23T08:25:14.644Z,4.02
2023-02-23T08:30:19.969Z,5.57
2023-02-23T08:35:23.004Z,6.70
2023-02-23T08:40:26.262Z,5.30
2023-02-23T08:45:29.466Z,4.53
2023-02-23T08:50:32.486Z,4.98
2023-02-23T08:55:35.722Z,7.33
2023-02-23T09:00:38.889Z,6.23
2023-02-23T09:05:41.808Z,5.21
2023-02-23T09:10:45.164Z,4.69
2023-02-23T09:15:48.242Z,5.37
2023-02-23T09:20:51.289Z,8.78
2023-02-23T09:25:54.156Z,9.15
2023-02-23T09:30:57.761Z,7.27
2023-02-23T09:36:00.855Z,6.20
2023-02-23T09:41:07.188Z,5.58
2023-02-23T09:46:34.063Z,5.11
2023-02-23T09:51:42.181Z,4.75
2023-02-23T09:56:49.895Z,4.56
2023-02-23T10:02:05.566Z,6.92
2023-02-23T10:07:21.568Z,9.54
2023-02-23T10:12:50.364Z,8.04
2023-02-23T10:18:46.542Z,6.66
2023-02-23T10:24:04.036Z,5.88
2023-02-23T10:29:21.171Z,5.49
2023-02-23T10:34:26.887Z,5.22
2023-02-23T10:39:32.563Z,5.55
2023-02-23T10:44:35.539Z,7.54
2023-02-23T10:49:46.958Z,6.61
2023-02-23T10:54:51.870Z,5.98
2023-02-23T11:00:33.050Z,5.66
2023-02-23T11:05:53.011Z,5.47
2023-02-23T11:11:01.287Z,5.42
2023-02-23T11:16:13.483Z,5.35
2023-02-23T11:21:33.840Z,5.33
2023-02-23T11:26:43.514Z,5.34
2023-02-23T11:31:58.810Z,7.45
2023-02-23T11:37:31.203Z,8.02
2023-02-23T11:42:34.142Z,6.93
2023-02-23T11:47:44.674Z,6.44
2023-02-23T11:53:02.813Z,6.18
2023-02-23T11:58:32.337Z,5.99
2023-02-23T12:03:36.471Z,5.84
2023-02-23T12:08:49.094Z,5.75
2023-02-23T12:14:12.553Z,5.70
2023-02-23T12:19:35.625Z,5.71
2023-02-23T12:24:44.355Z,5.70
2023-02-23T12:30:18.392Z,5.70
2023-02-23T12:35:31.112Z,5.72
2023-02-23T12:40:39.027Z,7.33
2023-02-23T12:46:23.158Z,7.85
2023-02-23T12:51:51.701Z,7.03
2023-02-23T12:57:11.319Z,6.62
2023-02-23T13:02:38.963Z,6.32
2023-02-23T13:08:14.755Z,6.14
2023-02-23T13:13:50.573Z,6.07
2023-02-23T13:19:05.951Z,5.96
2023-02-23T13:24:19.463Z,5.94
2023-02-23T13:29:36.313Z,5.97
2023-02-23T13:34:52.713Z,8.15
2023-02-23T13:40:01.537Z,7.69
2023-02-23T13:45:25.596Z,6.89
2023-02-23T13:50:46.659Z,6.45
2023-02-23T13:55:51.819Z,6.20
2023-02-23T14:01:39.596Z,6.06
2023-02-23T14:07:03.964Z,7.99
2023-02-23T14:12:40.297Z,7.84
2023-02-23T14:17:44.282Z,6.97
2023-02-23T14:23:21.039Z,6.56
2023-02-23T14:28:33.848Z,6.25
2023-02-23T14:33:42.761Z,6.09
2023-02-23T14:38:48.220Z,8.37
2023-02-23T14:44:12.267Z,8.45
2023-02-23T14:49:22.690Z,7.24
2023-02-23T14:54:40.746Z,6.65
2023-02-23T14:59:44.362Z,6.24
2023-02-23T15:04:47.465Z,8.11
2023-02-23T15:09:56.204Z,9.05
2023-02-23T15:15:02.451Z,7.48
2023-02-23T15:20:16.622Z,6.62
2023-02-23T15:25:39.673Z,6.07
2023-02-23T15:30:48.710Z,8.31
2023-02-23T15:36:13.617Z,9.50
2023-02-23T15:41:33.147Z,7.67
2023-02-23T15:46:37.884Z,6.67
2023-02-23T15:51:48.784Z,6.09
2023-02-23T15:56:58.743Z,6.24
2023-02-23T16:02:03.861Z,9.09
2023-02-23T16:07:28.179Z,7.97
2023-02-23T16:12:36.373Z,6.70
2023-02-23T16:17:46.505Z,5.99
2023-02-23T16:22:53.624Z,5.97
2023-02-23T16:28:03.375Z,8.86
2023-02-23T16:33:12.220Z,7.87
2023-02-23T16:38:35.945Z,6.56
2023-02-23T16:43:38.840Z,5.78
2023-02-23T16:48:41.763Z,6.57
2023-02-23T16:53:45.070Z,9.95
2023-02-23T16:59:01.067Z,10.55
2023-02-23T17:04:03.977Z,8.38
2023-02-23T17:09:06.874Z,7.07
2023-02-23T17:14:21.910Z,6.24
2023-02-23T17:19:26.014Z,5.68
2023-02-23T17:24:29.156Z,8.18
2023-02-23T17:29:32.232Z,10.92
2023-02-23T17:34:35.941Z,10.49
2023-02-23T17:39:41.009Z,8.37
2023-02-23T17:44:44.284Z,7.10
2023-02-23T17:49:47.524Z,6.27
2023-02-23T17:54:50.537Z,5.89
2023-02-23T17:59:53.572Z,8.74
2023-02-23T18:04:56.441Z,8.93
2023-02-23T18:09:59.332Z,7.21
2023-02-23T18:15:02.298Z,6.24
2023-02-23T18:20:06.813Z,5.61
2023-02-23T18:25:25.584Z,6.49
2023-02-23T18:30:28.477Z,9.79
2023-02-23T18:35:41.693Z,8.67
2023-02-23T18:40:45.320Z,7.05
2023-02-23T18:45:48.177Z,6.20
2023-02-23T18:50:56.737Z,5.65
2023-02-23T18:56:05.922Z,5.48
2023-02-23T19:01:21.239Z,8.55
2023-02-23T19:06:25.185Z,9.56
2023-02-23T19:11:32.153Z,7.73
2023-02-23T19:16:35.478Z,6.61
2023-02-23T19:21:38.975Z,5.95
2023-02-23T19:26:41.964Z,6.83
2023-02-23T19:31:45.086Z,9.29
2023-02-23T19:36:48.320Z,7.87
2023-02-23T19:41:51.202Z,6.70
2023-02-23T19:46:54.099Z,6.04
2023-02-23T19:51:57.880Z,7.01
2023-02-23T19:57:00.791Z,10.04
2023-02-23T20:02:03.704Z,10.68
2023-02-23T20:07:07.598Z,8.77
2023-02-23T20:12:10.646Z,7.50
2023-02-23T20:17:13.879Z,6.72
2023-02-23T20:22:16.796Z,6.17
2023-02-23T20:27:22.670Z,7.05
2023-02-23T20:32:26.084Z,9.60
2023-02-23T20:37:29.043Z,8.51
2023-02-23T20:42:31.981Z,7.18
2023-02-23T20:47:35.222Z,6.45
2023-02-23T20:52:38.714Z,7.03
2023-02-23T20:57:41.812Z,9.92
2023-02-23T21:02:44.702Z,9.72
2023-02-23T21:07:49.380Z,7.98
2023-02-23T21:12:53.079Z,7.01
2023-02-23T21:17:57.709Z,6.51
2023-02-23T21:23:00.767Z,8.78
2023-02-23T21:28:03.663Z,10.49
2023-02-23T21:33:06.674Z,8.91
2023-02-23T21:38:10.517Z,7.64
2023-02-23T21:43:13.395Z,6.87
2023-02-23T21:48:16.247Z,7.59
2023-02-23T21:53:19.101Z,10.39
2023-02-23T21:58:23.102Z,10.96
2023-02-23T22:03:27.371Z,9.05
2023-02-23T22:08:30.269Z,7.79
2023-02-23T22:13:33.193Z,6.97
2023-02-23T22:18:36.131Z,6.42
2023-02-23T22:23:41.622Z,7.26
2023-02-23T22:28:45.005Z,10.23
2023-02-23T22:33:47.940Z,9.36
2023-02-23T22:38:51.038Z,7.91
2023-02-23T22:43:53.899Z,7.08
2023-02-23T22:48:56.753Z,6.57
2023-02-23T22:53:59.642Z,7.82
2023-02-23T22:59:08.686Z,10.47
2023-02-23T23:04:11.603Z,9.53
2023-02-23T23:09:16.556Z,8.14
2023-02-23T23:14:19.684Z,7.33
2023-02-23T23:19:25.862Z,6.79
2023-02-23T23:24:29.403Z,7.56
2023-02-23T23:29:32.638Z,10.40
2023-02-23T23:34:35.673Z,10.24
2023-02-23T23:39:38.529Z,8.67
2023-02-23T23:44:41.549Z,7.78
2023-02-23T23:49:45.389Z,7.20
2023-02-23T23:54:48.281Z,6.80
2023-02-23T23:59:51.364Z,6.51
